createdAt,value
2023-01-02T00:00:34.257Z,99030.48
2023-01-02T00:01:55.507Z,99029.84
2023-01-02T00:02:57.669Z,99030.66
2023-01-02T00:04:00.412Z,99027.48
2023-01-02T00:05:02.654Z,99033.13
2023-01-02T00:06:05.292Z,99027.58
2023-01-02T00:07:07.216Z,99027.60
2023-01-02T00:08:09.225Z,99021.63
2023-01-02T00:09:11.125Z,99021.27
2023-01-02T00:10:13.180Z,99024.90
2023-01-02T00:11:15.429Z,99023.34
2023-01-02T00:12:17.303Z,99021.84
2023-01-02T00:13:19.222Z,99024.98
2023-01-02T00:14:21.497Z,99025.24
2023-01-02T00:15:23.515Z,99027.20
2023-01-02T00:16:25.625Z,99026.02
2023-01-02T00:17:29.027Z,99027.45
2023-01-02T00:18:30.995Z,99026.98
2023-01-02T00:19:32.975Z,99027.11
2023-01-02T00:20:34.812Z,99023.44
2023-01-02T00:21:36.742Z,99023.76
2023-01-02T00:22:38.860Z,99022.80
2023-01-02T00:23:40.963Z,99014.23
2023-01-02T00:24:42.775Z,99011.85
2023-01-02T00:25:44.684Z,99005.81
2023-01-02T00:26:46.599Z,99014.45
2023-01-02T00:27:48.482Z,99014.41
2023-01-02T00:28:50.335Z,99014.89
2023-01-02T00:29:52.395Z,99008.75
2023-01-02T00:30:54.359Z,99013.82
2023-01-02T00:31:56.469Z,99010.79
2023-01-02T00:33:00.249Z,99011.61
2023-01-02T00:34:02.561Z,99009.02
2023-01-02T00:35:04.697Z,99010.86
2023-01-02T00:36:09.530Z,99005.96
2023-01-02T00:37:11.405Z,99009.64
2023-01-02T00:38:13.410Z,99011.16
2023-01-02T00:39:15.152Z,99011.22
2023-01-02T00:40:17.309Z,99017.15
2023-01-02T00:41:19.221Z,99016.97
2023-01-02T00:42:21.055Z,99017.91
2023-01-02T00:43:23.171Z,99016.98
2023-01-02T00:44:24.993Z,99019.42
2023-01-02T00:45:27.747Z,99017.20
2023-01-02T00:46:29.767Z,99011.61
2023-01-02T00:47:31.596Z,99011.44
2023-01-02T00:48:33.459Z,99012.27
2023-01-02T00:49:35.339Z,99007.20
2023-01-02T00:50:37.321Z,99004.30
2023-01-02T00:51:39.231Z,99007.48
2023-01-02T00:52:41.212Z,99008.93
2023-01-02T00:53:43.098Z,99008.02
2023-01-02T00:54:45.764Z,99006.52
2023-01-02T00:55:47.670Z,99005.60
2023-01-02T00:56:49.783Z,99010.41
2023-01-02T00:57:52.811Z,99012.85
2023-01-02T00:58:54.786Z,99009.71
2023-01-02T00:59:56.786Z,99010.63
2023-01-02T01:00:58.688Z,99010.38
2023-01-02T01:02:00.664Z,99007.58
2023-01-02T01:03:03.268Z,98999.77
2023-01-02T01:04:05.080Z,98999.98
2023-01-02T01:05:07.506Z,99002.03
2023-01-02T01:06:11.062Z,99006.50
2023-01-02T01:07:12.958Z,99006.12
2023-01-02T01:08:14.690Z,99006.00
2023-01-02T01:09:16.827Z,99008.33
2023-01-02T01:10:18.583Z,99006.11
2023-01-02T01:11:20.336Z,99008.75
2023-01-02T01:12:22.271Z,99007.14
2023-01-02T01:13:24.011Z,99008.60
2023-01-02T01:14:25.945Z,99005.94
2023-01-02T01:15:27.897Z,99002.92
2023-01-02T01:16:30.361Z,99008.26
2023-01-02T01:17:33.061Z,99007.29
2023-01-02T01:18:35.669Z,99010.69
2023-01-02T01:19:37.563Z,99008.90
2023-01-02T01:20:39.695Z,99006.68
2023-01-02T01:21:41.610Z,99002.31
2023-01-02T01:22:44.264Z,99000.86
2023-01-02T01:23:51.868Z,98998.09
2023-01-02T01:24:53.674Z,99001.31
2023-01-02T01:25:55.451Z,98998.50
2023-01-02T01:26:57.582Z,98992.58
2023-01-02T01:27:59.664Z,98997.14
2023-01-02T01:29:01.972Z,98989.96
2023-01-02T01:30:06.499Z,98991.27
2023-01-02T01:31:12.257Z,98990.43
2023-01-02T01:32:14.217Z,98987.14
2023-01-02T01:33:16.094Z,98981.85
2023-01-02T01:34:17.907Z,98979.41
2023-01-02T01:35:20.041Z,98985.67
2023-01-02T01:36:24.377Z,98984.86
2023-01-02T01:37:26.258Z,98986.75
2023-01-02T01:38:28.169Z,98988.14
2023-01-02T01:39:29.951Z,98987.74
2023-01-02T01:40:38.674Z,98987.79
2023-01-02T01:41:40.632Z,98982.70
2023-01-02T01:42:42.485Z,98981.77
2023-01-02T01:43:53.150Z,98977.83
2023-01-02T01:44:55.661Z,98979.80
2023-01-02T01:45:57.750Z,98972.51
2023-01-02T01:46:59.928Z,98973.23
2023-01-02T01:48:02.211Z,98972.19
2023-01-02T01:49:16.302Z,98973.22
2023-01-02T01:50:24.933Z,98965.77
2023-01-02T01:51:30.655Z,98966.96
2023-01-02T01:52:36.601Z,98963.77
2023-01-02T01:53:38.794Z,98965.45
2023-01-02T01:54:49.025Z,98961.78
2023-01-02T01:55:58.705Z,98956.16
2023-01-02T01:57:12.109Z,98956.05
2023-01-02T01:58:19.291Z,98958.02
2023-01-02T01:59:21.368Z,98957.72
2023-01-02T02:00:23.328Z,98958.52
2023-01-02T02:01:25.364Z,98956.27
2023-01-02T02:02:29.865Z,98961.29
2023-01-02T02:03:35.870Z,98958.69
2023-01-02T02:04:38.607Z,98958.73
2023-01-02T02:05:43.786Z,98958.02
2023-01-02T02:06:46.162Z,98958.17
2023-01-02T02:08:04.560Z,98959.40
2023-01-02T02:09:20.625Z,98956.42
2023-01-02T02:10:23.416Z,98958.67
2023-01-02T02:11:25.704Z,98956.45
2023-01-02T02:12:30.023Z,98956.37
2023-01-02T02:13:34.094Z,98953.49
2023-01-02T02:14:35.961Z,98954.29
2023-01-02T02:16:16.738Z,98952.77
2023-01-02T02:17:56.623Z,98950.64
2023-01-02T02:19:17.682Z,98948.30
2023-01-02T02:20:55.868Z,98947.64
2023-01-02T02:22:14.549Z,98943.91
2023-01-02T02:23:47.261Z,98938.45
2023-01-02T02:25:08.408Z,98935.85
2023-01-02T02:26:28.057Z,98932.83
2023-01-02T02:27:47.880Z,98928.20
2023-01-02T02:29:28.469Z,98926.16
2023-01-02T02:30:39.186Z,98923.52
2023-01-02T02:32:10.893Z,98926.05
2023-01-02T02:33:40.460Z,98926.78
2023-01-02T02:35:11.826Z,98926.71
2023-01-02T02:36:32.527Z,98926.50
2023-01-02T02:37:40.193Z,98925.90
2023-01-02T02:39:10.201Z,98924.23
2023-01-02T02:40:42.826Z,98924.66
2023-01-02T02:42:05.795Z,98925.40
2023-01-02T02:43:34.081Z,98930.30
2023-01-02T02:45:07.273Z,98932.92
2023-01-02T02:46:47.928Z,98932.13
2023-01-02T02:48:12.058Z,98931.07
2023-01-02T02:49:21.017Z,98934.10
2023-01-02T02:50:33.983Z,98935.66
2023-01-02T02:52:07.944Z,98937.13
2023-01-02T02:53:20.855Z,98937.88
2023-01-02T02:54:53.270Z,98938.90
2023-01-02T02:56:00.285Z,98939.24
2023-01-02T02:57:06.372Z,98941.73
2023-01-02T02:58:08.882Z,98939.04
2023-01-02T02:59:11.631Z,98937.52
2023-01-02T03:00:17.452Z,98944.20
2023-01-02T03:01:19.653Z,98944.09
2023-01-02T03:02:21.810Z,98946.67
2023-01-02T03:03:24.330Z,98946.92
2023-01-02T03:04:26.213Z,98945.04
2023-01-02T03:05:40.077Z,98945.88
2023-01-02T03:07:00.696Z,98946.06
2023-01-02T03:08:24.003Z,98942.48
2023-01-02T03:09:42.583Z,98942.58
2023-01-02T03:11:00.339Z,98937.55
2023-01-02T03:12:30.017Z,98935.63
2023-01-02T03:13:46.636Z,98937.14
2023-01-02T03:15:12.412Z,98937.46
2023-01-02T03:16:36.030Z,98931.91
2023-01-02T03:17:59.769Z,98929.70
2023-01-02T03:19:27.693Z,98927.44
2023-01-02T03:20:38.090Z,98925.75
2023-01-02T03:22:11.441Z,98920.94
2023-01-02T03:23:22.446Z,98919.73
2023-01-02T03:24:26.905Z,98915.79
2023-01-02T03:25:29.922Z,98912.59
2023-01-02T03:26:36.584Z,98908.20
2023-01-02T03:27:44.864Z,98908.03
2023-01-02T03:28:54.644Z,98909.73
2023-01-02T03:30:07.691Z,98910.15
2023-01-02T03:31:16.423Z,98907.74
2023-01-02T03:32:30.829Z,98913.91
2023-01-02T03:33:39.806Z,98909.41
2023-01-02T03:34:46.971Z,98916.17
2023-01-02T03:35:56.758Z,98916.95
2023-01-02T03:37:06.598Z,98917.19
2023-01-02T03:38:20.914Z,98919.90
2023-01-02T03:39:29.547Z,98920.58
2023-01-02T03:40:41.149Z,98923.16
2023-01-02T03:42:05.041Z,98919.78
2023-01-02T03:43:29.205Z,98922.02
2023-01-02T03:44:41.589Z,98918.17
2023-01-02T03:45:50.959Z,98916.38
2023-01-02T03:47:24.317Z,98918.41
2023-01-02T03:48:59.962Z,98914.63
2023-01-02T03:50:10.913Z,98916.70
2023-01-02T03:51:12.937Z,98921.73
2023-01-02T03:52:15.120Z,98929.31
2023-01-02T03:53:17.095Z,98928.81
2023-01-02T03:54:19.914Z,98930.37
2023-01-02T03:55:27.320Z,98933.20
2023-01-02T03:56:57.182Z,98934.27
2023-01-02T03:58:30.862Z,98936.23
2023-01-02T03:59:58.271Z,98933.70
2023-01-02T04:01:08.321Z,98937.02
2023-01-02T04:02:32.097Z,98934.02
2023-01-02T04:03:55.078Z,98933.36
2023-01-02T04:05:08.551Z,98931.64
2023-01-02T04:06:25.038Z,98926.77
2023-01-02T04:07:41.577Z,98929.84
2023-01-02T04:08:56.081Z,98925.98
2023-01-02T04:10:00.896Z,98926.30
2023-01-02T04:11:07.684Z,98927.61
2023-01-02T04:12:15.597Z,98929.38
2023-01-02T04:13:28.309Z,98925.15
2023-01-02T04:14:43.360Z,98927.70
2023-01-02T04:15:48.561Z,98925.47
2023-01-02T04:16:54.196Z,98924.33
2023-01-02T04:18:10.152Z,98924.63
2023-01-02T04:19:47.823Z,98926.82
2023-01-02T04:20:55.608Z,98920.55
2023-01-02T04:22:05.481Z,98920.60
2023-01-02T04:23:15.776Z,98919.00
2023-01-02T04:24:29.575Z,98916.96
2023-01-02T04:25:43.265Z,98914.40
2023-01-02T04:26:47.843Z,98912.98
2023-01-02T04:28:01.232Z,98911.79
2023-01-02T04:29:04.125Z,98914.30
2023-01-02T04:30:07.933Z,98911.42
2023-01-02T04:31:22.167Z,98912.22
2023-01-02T04:32:37.522Z,98915.81
2023-01-02T04:33:46.124Z,98913.66
2023-01-02T04:34:51.487Z,98912.27
2023-01-02T04:35:53.359Z,98908.35
2023-01-02T04:36:55.207Z,98911.70
2023-01-02T04:37:57.092Z,98909.33
2023-01-02T04:38:59.192Z,98909.13
2023-01-02T04:40:19.600Z,98905.09
2023-01-02T04:41:27.396Z,98900.25
2023-01-02T04:42:29.340Z,98898.02
2023-01-02T04:43:31.744Z,98897.23
2023-01-02T04:44:33.668Z,98896.95
2023-01-02T04:45:36.207Z,98894.52
2023-01-02T04:46:38.136Z,98890.04
2023-01-02T04:47:40.315Z,98889.92
2023-01-02T04:48:42.147Z,98892.30
2023-01-02T04:49:44.159Z,98885.95
2023-01-02T04:50:46.074Z,98886.16
2023-01-02T04:51:47.932Z,98887.44
2023-01-02T04:52:49.779Z,98886.98
2023-01-02T04:53:52.795Z,98891.33
2023-01-02T04:54:54.568Z,98890.66
2023-01-02T04:55:57.627Z,98889.23
2023-01-02T04:56:59.464Z,98889.71
2023-01-02T04:58:01.594Z,98884.64
2023-01-02T04:59:03.790Z,98887.39
2023-01-02T05:00:08.577Z,98887.64
2023-01-02T05:01:13.082Z,98888.16
2023-01-02T05:02:15.423Z,98885.13
2023-01-02T05:03:17.456Z,98883.17
2023-01-02T05:04:19.932Z,98887.37
2023-01-02T05:05:21.805Z,98883.67
2023-01-02T05:06:23.569Z,98886.84
2023-01-02T05:07:25.454Z,98881.13
2023-01-02T05:08:29.723Z,98881.50
2023-01-02T05:09:32.726Z,98877.84
2023-01-02T05:10:34.535Z,98875.99
2023-01-02T05:11:36.785Z,98871.67
2023-01-02T05:12:39.389Z,98866.48
2023-01-02T05:13:42.577Z,98867.48
2023-01-02T05:14:44.464Z,98867.23
2023-01-02T05:15:46.281Z,98864.88
2023-01-02T05:16:48.042Z,98866.54
2023-01-02T05:17:49.949Z,98865.65
2023-01-02T05:18:52.780Z,98860.73
2023-01-02T05:19:54.576Z,98857.86
2023-01-02T05:21:28.047Z,98858.86
2023-01-02T05:22:48.793Z,98860.80
2023-01-02T05:23:50.654Z,98860.69
2023-01-02T05:24:52.477Z,98862.02
2023-01-02T05:25:54.331Z,98863.68
2023-01-02T05:26:56.240Z,98865.55
2023-01-02T05:27:58.659Z,98860.55
2023-01-02T05:29:01.675Z,98858.71
2023-01-02T05:30:04.818Z,98857.52
2023-01-02T05:31:07.130Z,98861.20
2023-01-02T05:32:10.095Z,98861.08
2023-01-02T05:33:12.086Z,98859.18
2023-01-02T05:34:15.999Z,98856.02
2023-01-02T05:35:18.203Z,98854.31
2023-01-02T05:36:22.225Z,98850.09
2023-01-02T05:37:24.139Z,98850.87
2023-01-02T05:38:26.181Z,98850.65
2023-01-02T05:39:27.915Z,98850.89
2023-01-02T05:40:29.704Z,98849.33
2023-01-02T05:41:31.874Z,98848.64
2023-01-02T05:42:33.649Z,98843.19
2023-01-02T05:43:37.642Z,98839.98
2023-01-02T05:44:39.464Z,98836.06
2023-01-02T05:45:41.289Z,98838.92
2023-01-02T05:46:43.088Z,98842.10
2023-01-02T05:47:44.906Z,98838.83
2023-01-02T05:48:46.908Z,98837.09
2023-01-02T05:49:48.974Z,98834.93
2023-01-02T05:50:50.767Z,98831.46
2023-01-02T05:51:52.745Z,98825.80
2023-01-02T05:52:56.701Z,98828.15
2023-01-02T05:53:58.478Z,98825.51
2023-01-02T05:55:00.252Z,98825.55
2023-01-02T05:56:13.295Z,98825.27
2023-01-02T05:57:16.048Z,98826.83
2023-01-02T05:58:17.814Z,98830.90
2023-01-02T05:59:19.665Z,98835.20
2023-01-02T06:00:21.521Z,98837.35
2023-01-02T06:01:26.523Z,98839.39
2023-01-02T06:02:28.573Z,98844.02
2023-01-02T06:03:30.963Z,98842.66
2023-01-02T06:04:32.881Z,98842.11
2023-01-02T06:05:35.582Z,98842.73
2023-01-02T06:06:40.006Z,98842.15
2023-01-02T06:07:41.722Z,98838.96
2023-01-02T06:08:44.240Z,98843.48
2023-01-02T06:09:46.208Z,98842.73
2023-01-02T06:10:52.028Z,98842.23
2023-01-02T06:11:53.863Z,98843.67
2023-01-02T06:12:55.676Z,98843.48
2023-01-02T06:13:58.082Z,98848.44
2023-01-02T06:15:00.312Z,98846.39
2023-01-02T06:16:05.164Z,98844.10
2023-01-02T06:17:06.929Z,98841.32
2023-01-02T06:18:08.642Z,98841.44
2023-01-02T06:19:10.446Z,98844.26
2023-01-02T06:20:12.623Z,98838.61
2023-01-02T06:21:17.983Z,98837.38
2023-01-02T06:22:19.809Z,98832.63
2023-01-02T06:23:21.547Z,98833.66
2023-01-02T06:24:23.238Z,98826.46
2023-01-02T06:25:25.041Z,98828.09
2023-01-02T06:26:34.184Z,98825.39
2023-01-02T06:27:36.602Z,98826.52
2023-01-02T06:28:39.561Z,98819.19
2023-01-02T06:29:41.440Z,98820.33
2023-01-02T06:30:43.553Z,98818.45
2023-01-02T06:31:51.073Z,98820.66
2023-01-02T06:32:53.534Z,98815.23
2023-01-02T06:33:57.206Z,98816.38
2023-01-02T06:35:00.158Z,98811.11
2023-01-02T06:36:06.546Z,98808.49
2023-01-02T06:37:10.293Z,98802.98
2023-01-02T06:38:12.274Z,98802.90
2023-01-02T06:39:13.968Z,98803.56
2023-01-02T06:40:16.121Z,98796.88
2023-01-02T06:41:18.660Z,98796.29
2023-01-02T06:42:20.368Z,98799.99
2023-01-02T06:43:22.985Z,98803.30
2023-01-02T06:44:24.711Z,98798.26
2023-01-02T06:45:26.516Z,98795.92
2023-01-02T06:46:28.446Z,98800.53
2023-01-02T06:47:30.161Z,98798.11
2023-01-02T06:48:34.181Z,98797.88
2023-01-02T06:49:35.949Z,98794.28
2023-01-02T06:50:37.783Z,98790.56
2023-01-02T06:51:39.646Z,98786.53
2023-01-02T06:52:41.340Z,98788.23
2023-01-02T06:53:44.358Z,98782.05
2023-01-02T06:54:46.432Z,98781.22
2023-01-02T06:55:57.174Z,98780.19
2023-01-02T06:56:59.084Z,98774.50
2023-01-02T06:58:05.105Z,98780.80
2023-01-02T06:59:11.949Z,98781.70
2023-01-02T07:00:14.494Z,98785.20
2023-01-02T07:01:19.365Z,98781.39
2023-01-02T07:02:21.453Z,98784.78
2023-01-02T07:03:23.394Z,98791.56
2023-01-02T07:04:25.212Z,98791.51
2023-01-02T07:05:27.081Z,98789.86
2023-01-02T07:06:28.962Z,98792.23
2023-01-02T07:07:30.757Z,98790.73
2023-01-02T07:08:33.870Z,98794.13
2023-01-02T07:09:35.716Z,98793.77
2023-01-02T07:10:37.620Z,98791.76
2023-01-02T07:11:39.717Z,98796.10
2023-01-02T07:12:41.416Z,98793.75
2023-01-02T07:13:45.483Z,98795.48
2023-01-02T07:14:47.251Z,98795.44
2023-01-02T07:15:49.316Z,98795.33
2023-01-02T07:16:51.515Z,98795.11
2023-01-02T07:17:53.374Z,98792.48
2023-01-02T07:18:55.180Z,98791.88
2023-01-02T07:20:01.676Z,98791.36
2023-01-02T07:21:06.023Z,98790.92
2023-01-02T07:22:07.794Z,98786.88
2023-01-02T07:23:09.608Z,98784.27
2023-01-02T07:24:13.238Z,98787.83
2023-01-02T07:25:15.110Z,98789.89
2023-01-02T07:26:17.815Z,98787.85
2023-01-02T07:27:19.553Z,98786.14
2023-01-02T07:28:21.922Z,98783.95
2023-01-02T07:29:23.797Z,98785.30
2023-01-02T07:30:25.535Z,98785.16
2023-01-02T07:31:29.262Z,98784.83
2023-01-02T07:32:31.255Z,98783.77
2023-01-02T07:33:34.009Z,98783.98
2023-01-02T07:34:35.793Z,98784.75
2023-01-02T07:35:37.530Z,98784.91
2023-01-02T07:36:39.272Z,98787.08
2023-01-02T07:37:40.988Z,98785.26
2023-01-02T07:38:44.837Z,98784.89
2023-01-02T07:39:46.639Z,98782.44
2023-01-02T07:40:48.420Z,98782.98
2023-01-02T07:41:50.118Z,98786.70
2023-01-02T07:42:54.505Z,98786.02
2023-01-02T07:43:56.722Z,98784.64
2023-01-02T07:44:58.717Z,98785.29
2023-01-02T07:46:04.410Z,98789.55
2023-01-02T07:47:06.542Z,98788.53
2023-01-02T07:48:08.577Z,98787.58
2023-01-02T07:49:13.779Z,98790.89
2023-01-02T07:50:15.855Z,98787.55
2023-01-02T07:51:22.854Z,98789.78
2023-01-02T07:52:30.241Z,98791.04
2023-01-02T07:53:32.958Z,98790.47
2023-01-02T07:54:34.855Z,98795.98
2023-01-02T07:55:36.641Z,98795.46
2023-01-02T07:56:38.667Z,98796.83
2023-01-02T07:57:40.405Z,98799.86
2023-01-02T07:58:42.169Z,98797.48
2023-01-02T07:59:46.959Z,98797.83
2023-01-02T08:00:49.040Z,98797.35
2023-01-02T08:01:51.021Z,98797.06
2023-01-02T08:02:55.066Z,98796.33
2023-01-02T08:03:57.102Z,98793.29
2023-01-02T08:04:58.899Z,98791.25
2023-01-02T08:06:16.714Z,98791.00
2023-01-02T08:07:19.074Z,98792.25
2023-01-02T08:08:20.849Z,98791.31
2023-01-02T08:09:22.623Z,98792.29
2023-01-02T08:10:24.675Z,98791.34
2023-01-02T08:11:26.702Z,98789.64
2023-01-02T08:12:28.646Z,98787.02
2023-01-02T08:13:30.396Z,98788.81
2023-01-02T08:14:32.157Z,98783.65
2023-01-02T08:15:35.107Z,98783.89
2023-01-02T08:16:36.994Z,98779.54
2023-01-02T08:17:39.621Z,98781.23
2023-01-02T08:18:42.141Z,98782.63
2023-01-02T08:19:43.945Z,98782.55
2023-01-02T08:20:45.772Z,98786.06
2023-01-02T08:21:47.734Z,98780.90
2023-01-02T08:22:49.733Z,98783.89
2023-01-02T08:23:51.551Z,98784.56
2023-01-02T08:24:53.450Z,98789.73
2023-01-02T08:25:59.747Z,98790.21
2023-01-02T08:27:01.586Z,98793.60
2023-01-02T08:28:03.696Z,98791.83
2023-01-02T08:29:07.365Z,98796.38
2023-01-02T08:30:09.463Z,98798.27
2023-01-02T08:31:17.807Z,98797.54
2023-01-02T08:32:19.672Z,98798.52
2023-01-02T08:33:22.444Z,98799.45
2023-01-02T08:34:24.345Z,98801.48
2023-01-02T08:35:37.922Z,98801.66
2023-01-02T08:36:42.204Z,98801.92
2023-01-02T08:37:50.107Z,98799.09
2023-01-02T08:38:53.339Z,98796.75
2023-01-02T08:39:55.256Z,98798.30
2023-01-02T08:41:00.936Z,98795.63
2023-01-02T08:42:02.805Z,98797.96
2023-01-02T08:43:07.560Z,98794.20
2023-01-02T08:44:09.449Z,98795.20
2023-01-02T08:45:11.734Z,98793.83
2023-01-02T08:46:13.519Z,98795.79
2023-01-02T08:47:15.936Z,98799.53
2023-01-02T08:48:20.997Z,98801.02
2023-01-02T08:49:23.608Z,98800.00
2023-01-02T08:50:25.662Z,98800.23
2023-01-02T08:51:28.180Z,98802.10
2023-01-02T08:52:29.982Z,98800.34
2023-01-02T08:53:32.027Z,98800.42
2023-01-02T08:54:35.595Z,98798.01
2023-01-02T08:55:37.449Z,98797.16
2023-01-02T08:56:39.499Z,98798.67
2023-01-02T08:57:41.353Z,98801.00
2023-01-02T08:58:46.234Z,98795.17
2023-01-02T08:59:52.519Z,98789.46
2023-01-02T09:00:54.272Z,98787.92
2023-01-02T09:01:56.186Z,98789.87
2023-01-02T09:02:58.282Z,98788.30
2023-01-02T09:04:06.235Z,98787.40
2023-01-02T09:05:13.638Z,98789.95
2023-01-02T09:06:21.501Z,98789.41
2023-01-02T09:07:24.527Z,98791.10
2023-01-02T09:08:26.890Z,98789.48
2023-01-02T09:09:28.625Z,98788.84
2023-01-02T09:10:30.514Z,98789.02
2023-01-02T09:11:38.284Z,98788.41
2023-01-02T09:12:40.125Z,98787.14
2023-01-02T09:13:43.178Z,98788.48
2023-01-02T09:14:45.020Z,98786.21
2023-01-02T09:15:46.917Z,98789.64
2023-01-02T09:16:50.973Z,98786.02
2023-01-02T09:17:52.869Z,98787.06
2023-01-02T09:19:00.682Z,98787.45
2023-01-02T09:20:04.008Z,98788.16
2023-01-02T09:21:06.653Z,98785.09
2023-01-02T09:22:09.571Z,98790.28
2023-01-02T09:23:11.336Z,98786.69
2023-01-02T09:24:13.273Z,98784.95
2023-01-02T09:25:20.410Z,98784.91
2023-01-02T09:26:25.734Z,98785.17
2023-01-02T09:27:27.619Z,98783.67
2023-01-02T09:28:30.466Z,98785.63
2023-01-02T09:29:32.447Z,98783.36
2023-01-02T09:30:34.246Z,98784.30
2023-01-02T09:31:36.034Z,98780.05
2023-01-02T09:32:37.854Z,98778.16
2023-01-02T09:33:41.151Z,98782.05
2023-01-02T09:34:42.884Z,98779.80
2023-01-02T09:35:44.630Z,98781.64
2023-01-02T09:36:47.566Z,98779.75
2023-01-02T09:37:49.330Z,98781.38
2023-01-02T09:38:57.298Z,98783.17
2023-01-02T09:39:58.997Z,98778.46
2023-01-02T09:41:11.194Z,98775.09
2023-01-02T09:42:17.105Z,98779.45
2023-01-02T09:43:31.453Z,98775.77
2023-01-02T09:44:42.701Z,98777.34
2023-01-02T09:45:46.653Z,98771.99
2023-01-02T09:47:00.454Z,98773.90
2023-01-02T09:48:02.678Z,98772.19
2023-01-02T09:49:05.308Z,98768.59
2023-01-02T09:50:16.510Z,98768.74
2023-01-02T09:51:18.561Z,98763.92
2023-01-02T09:52:27.037Z,98761.89
2023-01-02T09:53:30.119Z,98761.29
2023-01-02T09:54:33.959Z,98762.21
2023-01-02T09:55:56.704Z,98764.80
2023-01-02T09:57:27.511Z,98766.64
2023-01-02T09:59:10.588Z,98760.58
2023-01-02T10:00:26.484Z,98754.38
2023-01-02T10:01:34.556Z,98754.91
2023-01-02T10:03:11.656Z,98754.05
2023-01-02T10:04:13.755Z,98758.15
2023-01-02T10:06:08.555Z,98755.61
2023-01-02T10:07:30.611Z,98754.85
2023-01-02T10:08:38.133Z,98755.49
2023-01-02T10:09:48.748Z,98754.84
2023-01-02T10:11:24.491Z,98752.30
2023-01-02T10:12:42.789Z,98751.86
2023-01-02T10:14:18.570Z,98751.91
2023-01-02T10:15:28.298Z,98748.23
2023-01-02T10:16:41.502Z,98752.33
2023-01-02T10:17:51.871Z,98744.48
2023-01-02T10:18:56.272Z,98742.95
2023-01-02T10:20:23.832Z,98742.69
2023-01-02T10:21:35.740Z,98734.61
2023-01-02T10:22:51.366Z,98735.63
2023-01-02T10:24:09.984Z,98731.09
2023-01-02T10:25:25.321Z,98731.57
2023-01-02T10:26:37.007Z,98725.54
2023-01-02T10:27:49.514Z,98725.48
2023-01-02T10:28:53.819Z,98726.72
2023-01-02T10:30:19.403Z,98730.60
2023-01-02T10:31:31.199Z,98732.01
2023-01-02T10:32:35.300Z,98726.27
2023-01-02T10:33:55.871Z,98723.78
2023-01-02T10:35:07.401Z,98725.34
2023-01-02T10:36:23.508Z,98725.55
2023-01-02T10:37:26.933Z,98725.37
2023-01-02T10:38:39.440Z,98725.89
2023-01-02T10:39:44.385Z,98723.83
2023-01-02T10:40:49.861Z,98720.08
2023-01-02T10:41:57.432Z,98717.18
2023-01-02T10:43:00.683Z,98714.15
2023-01-02T10:44:32.764Z,98718.41
2023-01-02T10:45:35.359Z,98716.77
2023-01-02T10:46:40.996Z,98714.72
2023-01-02T10:47:44.804Z,98718.07
2023-01-02T10:48:52.241Z,98717.31
2023-01-02T10:49:57.537Z,98714.48
2023-01-02T10:51:03.556Z,98713.40
2023-01-02T10:52:29.606Z,98709.73
2023-01-02T10:53:34.139Z,98709.56
2023-01-02T10:54:55.016Z,98713.52
2023-01-02T10:56:16.583Z,98706.75
2023-01-02T10:57:40.714Z,98708.84
2023-01-02T10:58:48.807Z,98705.27
2023-01-02T11:00:00.509Z,98700.98
2023-01-02T11:01:18.336Z,98700.38
2023-01-02T11:02:40.979Z,98697.27
2023-01-02T11:03:42.785Z,98699.09
2023-01-02T11:04:44.767Z,98696.05
2023-01-02T11:05:53.734Z,98696.65
2023-01-02T11:07:01.594Z,98688.42
2023-01-02T11:08:14.058Z,98696.57
2023-01-02T11:09:23.808Z,98695.48
2023-01-02T11:10:32.313Z,98691.88
2023-01-02T11:11:34.142Z,98694.30
2023-01-02T11:12:47.713Z,98693.99
2023-01-02T11:13:54.549Z,98694.68
2023-01-02T11:15:14.595Z,98695.17
2023-01-02T11:16:17.497Z,98692.52
2023-01-02T11:17:23.953Z,98687.88
2023-01-02T11:18:33.146Z,98688.79
2023-01-02T11:19:47.388Z,98686.16
2023-01-02T11:21:00.062Z,98687.73
2023-01-02T11:22:03.095Z,98686.41
2023-01-02T11:23:06.434Z,98688.03
2023-01-02T11:24:19.356Z,98683.96
2023-01-02T11:25:35.899Z,98676.10
2023-01-02T11:26:40.810Z,98675.95
2023-01-02T11:27:44.879Z,98675.33
2023-01-02T11:28:50.595Z,98672.49
2023-01-02T11:29:52.536Z,98667.66
2023-01-02T11:31:06.286Z,98665.79
2023-01-02T11:32:08.302Z,98667.10
2023-01-02T11:33:13.440Z,98669.69
2023-01-02T11:34:24.201Z,98671.41
2023-01-02T11:35:38.843Z,98674.05
2023-01-02T11:36:44.256Z,98672.36
2023-01-02T11:37:55.155Z,98673.30
2023-01-02T11:38:56.987Z,98675.46
2023-01-02T11:40:03.644Z,98675.19
2023-01-02T11:41:05.880Z,98666.70
2023-01-02T11:42:59.092Z,98668.05
2023-01-02T11:44:01.618Z,98667.76
2023-01-02T11:45:11.434Z,98669.23
2023-01-02T11:46:27.055Z,98673.67
2023-01-02T11:47:38.969Z,98677.17
2023-01-02T11:48:40.801Z,98674.70
2023-01-02T11:49:45.242Z,98683.54
2023-01-02T11:50:48.578Z,98681.61
2023-01-02T11:51:58.018Z,98681.00
2023-01-02T11:53:02.692Z,98678.84
2023-01-02T11:54:14.173Z,98684.99
2023-01-02T11:55:58.478Z,98691.66
2023-01-02T11:57:01.204Z,98694.02
2023-01-02T11:58:35.651Z,98687.61
2023-01-02T11:59:47.833Z,98688.67
2023-01-02T12:00:55.727Z,98686.96
2023-01-02T12:02:21.348Z,98685.59
2023-01-02T12:03:27.106Z,98683.17
2023-01-02T12:04:29.387Z,98677.61
2023-01-02T12:06:11.770Z,98679.61
2023-01-02T12:07:14.058Z,98676.77
2023-01-02T12:08:53.281Z,98670.08
2023-01-02T12:10:10.128Z,98673.61
2023-01-02T12:11:20.935Z,98671.92
2023-01-02T12:12:31.831Z,98672.94
2023-01-02T12:13:50.483Z,98675.49
2023-01-02T12:15:07.081Z,98671.13
2023-01-02T12:16:23.253Z,98672.43
2023-01-02T12:17:34.131Z,98665.71
2023-01-02T12:18:48.347Z,98660.52
2023-01-02T12:20:06.256Z,98658.05
2023-01-02T12:21:24.604Z,98655.73
2023-01-02T12:22:42.553Z,98653.38
2023-01-02T12:24:09.299Z,98653.34
2023-01-02T12:25:38.584Z,98654.34
2023-01-02T12:26:51.871Z,98648.14
2023-01-02T12:28:27.549Z,98647.44
2023-01-02T12:30:00.842Z,98647.09
2023-01-02T12:31:24.112Z,98646.56
2023-01-02T12:32:59.276Z,98642.94
2023-01-02T12:34:07.812Z,98639.88
2023-01-02T12:35:35.908Z,98639.23
2023-01-02T12:36:46.840Z,98637.88
2023-01-02T12:38:10.929Z,98636.84
2023-01-02T12:40:12.108Z,98634.02
2023-01-02T12:41:23.484Z,98632.21
2023-01-02T12:42:58.877Z,98634.02
2023-01-02T12:44:13.041Z,98632.02
2023-01-02T12:45:49.941Z,98632.70
2023-01-02T12:47:18.851Z,98629.69
2023-01-02T12:48:39.452Z,98632.92
2023-01-02T12:49:50.772Z,98630.75
2023-01-02T12:51:04.791Z,98630.83
2023-01-02T12:52:22.515Z,98636.88
2023-01-02T12:54:19.809Z,98632.41
2023-01-02T12:55:41.263Z,98632.98
2023-01-02T12:56:58.921Z,98638.94
2023-01-02T12:58:29.009Z,98637.70
2023-01-02T12:59:57.359Z,98637.58
2023-01-02T13:01:53.944Z,98637.71
2023-01-02T13:03:25.356Z,98634.14
2023-01-02T13:04:50.055Z,98631.85
2023-01-02T13:06:05.236Z,98634.23
2023-01-02T13:07:39.532Z,98626.07
2023-01-02T13:09:10.136Z,98626.75
2023-01-02T13:10:22.487Z,98628.85
2023-01-02T13:11:37.184Z,98625.80
2023-01-02T13:12:40.439Z,98626.19
2023-01-02T13:13:43.059Z,98622.42
2023-01-02T13:14:57.523Z,98622.70
2023-01-02T13:16:13.564Z,98622.18
2023-01-02T13:17:22.796Z,98616.89
2023-01-02T13:19:04.732Z,98617.27
2023-01-02T13:20:50.267Z,98617.31
2023-01-02T13:22:12.601Z,98615.49
2023-01-02T13:23:40.488Z,98618.35